Detalii statie AGRONICOLESCU [00001CFA]

Toti senzorii

Date Temperatura solului [C]Precipitatii [mm]Voltaj baterie [mV]Leaf Wetness [Min]HC Air temperature [C]HC Relative humidity [%]Punctul de roua [C]
medieminmaxsumaultimatimpmedieminmaxmediemediemin
2019-02-21 00:00:00 0 7030 6.15 5.95 6.31 0 0 0
2019-02-21 01:00:00 0 7030 6.24 5.81 6.56 0 0 0
2019-02-21 02:00:00 0 7020 5.34 4.79 5.93 0 0 0
2019-02-21 03:00:00 0 7010 4.02 3.31 4.51 0 0 0
2019-02-21 04:00:00 0 7010 4.51 3.95 5.13 0 0 0
2019-02-21 05:00:00 0 7000 4.73 3.96 5.52 0 0 0
2019-02-21 06:00:00 0 7000 3.76 3.28 4.36 0 0 0
2019-02-21 07:00:00 0 6982 3.58 3.12 4.32 0 0 0
2019-02-21 08:00:00 0 7020 2.88 2.47 3.4 0 0 0
2019-02-21 09:00:00 0 7196 5.25 3.51 6.33 0 0 0
2019-02-21 10:00:00 0 7412 7.67 6.57 9.2 11.7 0.2 0
2019-02-21 11:00:00 0 7402 10.45 9.57 11.22 0 0 0
2019-02-21 12:00:00 0 7402 11.94 11.46 12.75 6.05 -0.4 0
2019-02-21 13:00:00 0 7402 12.99 12.18 13.85 5.63 -0.5 0
2019-02-21 14:00:00 0 7402 11.99 11.7 12.59 13.16 -0.5 0
2019-02-21 15:00:00 0 7402 13.07 12.29 13.53 17.32 0
2019-02-21 16:00:00 0 7392 12.7 12.02 13.31 34.09 -0.2 0
2019-02-21 17:00:00 0 7284 11.3 10.47 12.08 0 0 0
2019-02-21 18:00:00 0 7176 9.35 8.52 10.3 0 0 0
2019-02-21 19:00:00 0 7118 7.67 7.25 8.28 0 0 0
2019-02-21 20:00:00 0 7070 6.28 5.61 7.15 15.94 0
2019-02-21 21:00:00 0 7060 6.87 6.1 7.62 3.3 0
2019-02-21 22:00:00 0 7050 4.43 2.64 7.41 20.74 0
2019-02-21 23:00:00 0 7040 3.11 2.62 3.71 10.6 -0.5 0
2019-02-22 00:00:00 0 7020 3.6 2.37 4.72 11.09 -0.5 0
2019-02-22 01:00:00 0 7010 1.9 1.42 2.36 24.12 -0.8 0
2019-02-22 02:00:00 0 7010 2.47 0.79 3.59 44.59 -1.9 0
2019-02-22 03:00:00 0 7000 1.62 0.8 2.82 0 0 0
2019-02-22 04:00:00 0 6992 0.92 0.12 1.95 0 0 0
2019-02-22 05:00:00 0 6972 0.51 -0.31 1.22 0 0 0
2019-02-22 06:00:00 0 6972 0.39 -0.19 0.88 0 0 0
2019-02-22 07:00:00 0 6972 0.97 0.21 1.29 0 0 0
2019-02-22 08:00:00 0 6972 2.11 1.26 3.27 0 0 0
2019-02-22 09:00:00 0 7000 3.51 3.28 3.76 0 0 0
2019-02-22 10:00:00 0 7050 4.3 3.38 5.33 0 0 0
2019-02-22 11:00:00 0.2 7138 5.06 4.75 5.46 0 0 0
2019-02-22 12:00:00 0.2 7294 4.9 4.76 5.08 0 0 0
2019-02-22 13:00:00 0.4 7324 5.27 5.13 5.43 0 0 0
2019-02-22 14:00:00 0.2 7226 5.13 5.03 5.26 0 0 0
2019-02-22 15:00:00 0.4 7148 4.58 4.45 4.91 0 0 0
2019-02-22 16:00:00 0.4 7138 3.08 1.45 4.56 0 0 0
2019-02-22 17:00:00 0.6 7118 0.84 0.04 1.83 0 0 0
2019-02-22 18:00:00 0.2 7040 -0.49 -0.81 -0.02 0 0 0
2019-02-22 19:00:00 0.2 7000 -1.03 -1.34 -0.8 0 0 0
2019-02-22 20:00:00 0 6972 -1.93 -2.13 -1.44 0 0 0
2019-02-22 21:00:00 0 6962 -2.11 -2.3 -1.92 8.33 0
2019-02-22 22:00:00 0 6932 -2.55 -2.8 -2.35 4.89 0
2019-02-22 23:00:00 0 6952 -2.9 -3 -2.82 0 0 0